Time;durP1;ratioP1;P1;durP2;ratioP2;P2;SDS_P1;SDS_P2;PMS_P1;PMS_P2;Temp;Humidity;BMP_temperature;BMP_pressure;BME280_temperature;BME280_humidity;BME280_pressure;Samples;Min_cycle;Max_cycle;Signal;HPM_P1;HPM_P2
2022/07/26 00:01:40;;;;;;;4.90;1.80;;;20.30;65.40;;;;;;5115732;28;20047;-74
2022/07/26 00:04:06;;;;;;;5.38;1.98;;;20.30;65.50;;;;;;5115635;28;20020;-74
2022/07/26 00:06:32;;;;;;;6.25;2.15;;;20.30;65.60;;;;;;5115768;28;20348;-74
2022/07/26 00:08:58;;;;;;;4.97;1.77;;;20.30;65.70;;;;;;5115226;28;20040;-74
2022/07/26 00:11:25;;;;;;;5.60;1.77;;;20.20;65.80;;;;;;5115502;28;20054;-74
2022/07/26 00:13:52;;;;;;;2.83;1.83;;;20.20;65.80;;;;;;5115480;28;20016;-74
2022/07/26 00:16:18;;;;;;;5.22;2.00;;;20.20;66.90;;;;;;5115410;28;20024;-74
2022/07/26 00:18:44;;;;;;;6.70;2.35;;;20.20;66.00;;;;;;5097682;28;20018;-74
2022/07/26 00:21:09;;;;;;;4.82;2.15;;;20.20;66.00;;;;;;5115320;28;20448;-74
2022/07/26 00:23:35;;;;;;;5.93;1.90;;;20.20;66.10;;;;;;5115259;28;20037;-74
2022/07/26 00:26:01;;;;;;;6.22;2.00;;;20.10;66.50;;;;;;5097341;28;20054;-74
2022/07/26 00:28:26;;;;;;;5.97;2.00;;;20.10;66.60;;;;;;5097247;28;20024;-74
2022/07/26 00:30:52;;;;;;;4.07;2.05;;;20.10;66.60;;;;;;5097261;28;20036;-74
2022/07/26 00:33:18;;;;;;;5.00;1.70;;;20.10;66.40;;;;;;5115078;28;20020;-74
2022/07/26 00:35:43;;;;;;;5.93;1.98;;;20.10;66.60;;;;;;5114821;28;20081;-74
2022/07/26 00:38:09;;;;;;;3.95;1.70;;;20.10;66.40;;;;;;5115005;28;20027;-74
2022/07/26 00:40:34;;;;;;;5.55;2.20;;;20.00;66.60;;;;;;5114938;28;20032;-74
2022/07/26 00:43:00;;;;;;;5.20;1.98;;;20.00;66.70;;;;;;5114885;28;20087;-74
2022/07/26 00:45:26;;;;;;;5.07;1.80;;;20.00;66.80;;;;;;5114831;28;20036;-74
2022/07/26 00:47:52;;;;;;;5.78;2.10;;;20.00;66.90;;;;;;5114805;28;20039;-74
2022/07/26 00:50:18;;;;;;;4.03;1.98;;;20.00;67.20;;;;;;5096795;28;20036;-74
2022/07/26 00:52:47;;;;;;;3.17;1.90;;;20.00;67.30;;;;;;5114723;28;20013;-74
2022/07/26 00:55:14;;;;;;;4.55;2.00;;;19.90;67.20;;;;;;5114684;28;20391;-74
2022/07/26 00:57:41;;;;;;;4.70;1.70;;;19.90;67.40;;;;;;5114626;28;20024;-74
2022/07/26 01:00:10;;;;;;;2.65;2.00;;;19.90;67.50;;;;;;5114588;28;20024;-74
2022/07/26 01:02:36;;;;;;;10.88;2.10;;;19.80;67.50;;;;;;5114594;28;20035;-74
2022/07/26 01:05:02;;;;;;;5.63;2.00;;;19.90;67.90;;;;;;5114483;28;20032;-74
2022/07/26 01:07:28;;;;;;;4.55;1.80;;;19.80;67.90;;;;;;5114437;28;20032;-74
2022/07/26 01:09:54;;;;;;;3.75;2.25;;;19.70;67.90;;;;;;5114104;28;20050;-74
2022/07/26 01:12:20;;;;;;;3.45;2.00;;;19.70;68.20;;;;;;5114349;28;20043;-74
2022/07/26 01:14:45;;;;;;;5.10;2.00;;;19.70;68.20;;;;;;5114301;28;20040;-74
2022/07/26 01:17:13;;;;;;;7.38;2.50;;;19.70;68.30;;;;;;5114280;28;20028;-74
2022/07/26 01:19:39;;;;;;;4.88;2.47;;;19.70;68.20;;;;;;5114245;28;20032;-74
2022/07/26 01:22:05;;;;;;;6.80;2.13;;;19.70;68.20;;;;;;5114147;28;20057;-74
2022/07/26 01:24:31;;;;;;;5.88;2.30;;;19.70;68.10;;;;;;5114266;28;20028;-74
2022/07/26 01:26:56;;;;;;;4.65;2.30;;;19.80;68.20;;;;;;5113769;28;20028;-74
2022/07/26 01:29:25;;;;;;;7.15;2.33;;;19.70;68.40;;;;;;5113945;28;20035;-74
2022/07/26 01:31:52;;;;;;;6.90;2.10;;;19.70;68.60;;;;;;5114025;28;20063;-74
2022/07/26 01:34:18;;;;;;;7.57;2.25;;;19.70;68.70;;;;;;5114006;28;20069;-74
2022/07/26 01:36:44;;;;;;;4.45;2.13;;;19.70;68.70;;;;;;5113938;28;20024;-74
2022/07/26 01:39:09;;;;;;;4.55;2.30;;;19.70;69.00;;;;;;5113918;28;20097;-74
2022/07/26 01:41:35;;;;;;;4.82;2.15;;;19.60;69.10;;;;;;5113876;28;20024;-74
2022/07/26 01:44:01;;;;;;;5.10;2.20;;;19.60;69.30;;;;;;5113841;28;20035;-74
2022/07/26 01:46:27;;;;;;;5.18;2.25;;;19.60;69.10;;;;;;5113202;28;20020;-74
2022/07/26 01:48:53;;;;;;;6.70;2.42;;;19.70;69.30;;;;;;5113778;28;20044;-74
2022/07/26 01:51:18;;;;;;;7.28;1.92;;;19.70;69.30;;;;;;5113635;28;20035;-74
2022/07/26 01:53:44;;;;;;;3.70;1.80;;;19.60;69.40;;;;;;5113691;28;20024;-74
2022/07/26 01:56:11;;;;;;;4.80;2.40;;;19.60;69.50;;;;;;5095752;28;20081;-74
2022/07/26 01:58:37;;;;;;;6.22;2.35;;;19.60;69.40;;;;;;5113655;28;20023;-74
2022/07/26 02:01:03;;;;;;;8.15;2.63;;;19.60;69.70;;;;;;5113625;28;20036;-74
2022/07/26 02:03:28;;;;;;;5.03;2.00;;;19.60;70.00;;;;;;5113750;28;20062;-74
2022/07/26 02:05:54;;;;;;;4.93;2.30;;;19.60;70.60;;;;;;5113585;28;20088;-74
2022/07/26 02:08:20;;;;;;;8.52;2.38;;;19.70;70.80;;;;;;5113563;28;20395;-74
2022/07/26 02:11:06;;;;;;;6.45;2.38;;;19.60;71.40;;;;;;5113295;28;20503;-75
2022/07/26 02:13:35;;;;;;;7.35;2.72;;;19.60;71.90;;;;;;5113073;28;20031;-74
2022/07/26 02:16:02;;;;;;;6.38;2.42;;;19.60;72.20;;;;;;5113480;28;20051;-74
2022/07/26 02:18:28;;;;;;;9.45;2.33;;;19.50;72.60;;;;;;5113459;28;20028;-74
2022/07/26 02:20:55;;;;;;;8.82;2.58;;;19.50;73.10;;;;;;5095671;28;20532;-74
2022/07/26 02:23:22;;;;;;;7.53;2.58;;;19.40;73.50;;;;;;5095653;28;20035;-74
2022/07/26 02:25:48;;;;;;;7.20;2.53;;;19.40;74.00;;;;;;5113402;28;20028;-74
2022/07/26 02:28:15;;;;;;;7.65;3.03;;;19.30;74.20;;;;;;5113278;28;20120;-74
2022/07/26 02:30:41;;;;;;;6.63;2.58;;;19.30;74.40;;;;;;5095446;28;20055;-74
2022/07/26 02:33:07;;;;;;;10.07;2.70;;;19.30;74.50;;;;;;5113320;28;20016;-74
2022/07/26 02:35:33;;;;;;;6.28;2.55;;;19.20;74.70;;;;;;5113285;28;20054;-74
2022/07/26 02:38:08;;;;;;;4.18;2.47;;;19.20;75.30;;;;;;5113217;28;20025;-74
2022/07/26 02:40:35;;;;;;;11.73;3.10;;;19.20;75.40;;;;;;5113228;28;20031;-74
2022/07/26 02:43:01;;;;;;;8.80;2.95;;;19.20;75.50;;;;;;5113234;28;20051;-74
2022/07/26 02:45:26;;;;;;;5.18;2.30;;;19.20;75.40;;;;;;5113191;28;20039;-74
2022/07/26 02:47:53;;;;;;;8.27;2.90;;;19.20;75.40;;;;;;5113207;28;20038;-74
2022/07/26 02:50:21;;;;;;;6.30;2.50;;;19.20;75.30;;;;;;5113075;28;20024;-74
2022/07/26 02:52:47;;;;;;;7.82;2.78;;;19.30;75.30;;;;;;5113102;28;20024;-74
2022/07/26 02:55:18;;;;;;;6.00;3.22;;;19.30;75.40;;;;;;5113108;28;20037;-74
2022/07/26 02:57:45;;;;;;;9.38;2.70;;;19.20;75.50;;;;;;5114803;28;20020;-74
2022/07/26 03:00:12;;;;;;;6.88;3.05;;;19.30;75.60;;;;;;5116906;28;20075;-75
2022/07/26 03:02:38;;;;;;;6.25;2.72;;;19.30;75.60;;;;;;5116867;28;20035;-74
2022/07/26 03:05:05;;;;;;;4.63;2.90;;;19.30;75.30;;;;;;5116852;28;20020;-74
2022/07/26 03:07:32;;;;;;;6.90;2.72;;;19.30;75.20;;;;;;5116707;28;20050;-74
2022/07/26 03:09:58;;;;;;;7.65;2.42;;;19.30;75.40;;;;;;5116419;28;20052;-74
2022/07/26 03:12:24;;;;;;;6.93;2.90;;;19.20;76.30;;;;;;5116650;28;20024;-74
2022/07/26 03:14:50;;;;;;;4.38;2.78;;;19.20;75.50;;;;;;5116598;28;20031;-74
2022/07/26 03:17:15;;;;;;;5.88;2.65;;;19.20;75.40;;;;;;5116575;28;20479;-74
2022/07/26 03:19:41;;;;;;;6.90;2.90;;;19.20;75.40;;;;;;5116549;28;20032;-74
2022/07/26 03:22:06;;;;;;;9.35;3.28;;;19.20;75.30;;;;;;5116607;28;20031;-74
2022/07/26 03:24:32;;;;;;;5.38;2.55;;;19.20;75.30;;;;;;5116469;28;20036;-74
2022/07/26 03:26:58;;;;;;;7.68;2.92;;;19.20;75.30;;;;;;5116509;28;20035;-74
2022/07/26 03:29:23;;;;;;;10.85;3.30;;;19.20;75.30;;;;;;5116232;28;20040;-74
2022/07/26 03:31:49;;;;;;;5.22;2.97;;;19.20;75.60;;;;;;5116445;28;20034;-74
2022/07/26 03:34:15;;;;;;;5.63;3.03;;;19.10;75.40;;;;;;5116268;28;20028;-74
2022/07/26 03:36:42;;;;;;;7.32;3.10;;;19.10;75.30;;;;;;5116198;28;20052;-74
2022/07/26 03:39:08;;;;;;;8.98;3.30;;;19.10;75.40;;;;;;5116220;28;20093;-74
2022/07/26 03:41:34;;;;;;;6.63;2.78;;;19.10;75.50;;;;;;5116149;28;20024;-74
2022/07/26 03:44:00;;;;;;;6.15;3.17;;;19.10;75.60;;;;;;5116089;28;20042;-74
2022/07/26 03:46:26;;;;;;;8.55;3.35;;;19.10;75.50;;;;;;5116008;28;20051;-74
2022/07/26 03:48:51;;;;;;;6.60;3.20;;;19.00;75.70;;;;;;5115965;28;20024;-74
2022/07/26 03:51:17;;;;;;;6.65;3.20;;;19.00;75.80;;;;;;5115884;28;20058;-74
2022/07/26 03:53:42;;;;;;;6.03;3.35;;;19.00;75.90;;;;;;5115904;28;20028;-74
2022/07/26 03:58:52;;;;;;;8.10;3.40;;;18.90;75.80;;;;;;5115924;28;20039;-74
2022/07/26 04:01:18;;;;;;;8.35;3.50;;;18.90;75.90;;;;;;5115718;28;20028;-74
2022/07/26 04:03:43;;;;;;;7.63;3.35;;;18.90;76.00;;;;;;5097747;28;20028;-74
2022/07/26 04:06:09;;;;;;;9.13;3.83;;;18.90;76.00;;;;;;5115639;28;20044;-74
2022/07/26 04:08:35;;;;;;;7.97;3.47;;;18.90;76.20;;;;;;5114948;28;20028;-74
2022/07/26 04:11:01;;;;;;;9.63;3.53;;;18.90;76.30;;;;;;5115528;28;20044;-74
2022/07/26 04:13:26;;;;;;;11.57;3.78;;;18.80;76.70;;;;;;5097698;28;20051;-74
2022/07/26 04:15:52;;;;;;;7.65;3.38;;;18.80;76.80;;;;;;5115627;28;20083;-74
2022/07/26 04:18:18;;;;;;;10.80;3.88;;;18.80;76.80;;;;;;5115400;28;20020;-74
2022/07/26 04:20:44;;;;;;;6.80;3.60;;;18.80;77.10;;;;;;5115345;28;20046;-74
2022/07/26 04:23:09;;;;;;;7.70;3.88;;;18.90;77.00;;;;;;5115306;28;20102;-74
2022/07/26 04:25:35;;;;;;;8.27;3.80;;;18.90;77.10;;;;;;5115401;28;20036;-75
2022/07/26 04:28:01;;;;;;;9.27;3.92;;;18.90;77.10;;;;;;5115120;28;20034;-74
2022/07/26 04:30:27;;;;;;;9.23;3.67;;;18.90;77.20;;;;;;5115120;28;20050;-74
2022/07/26 04:32:53;;;;;;;9.05;3.42;;;18.90;77.10;;;;;;5115119;28;20079;-74
2022/07/26 04:35:19;;;;;;;12.52;3.92;;;18.90;77.20;;;;;;5115033;28;20031;-74
2022/07/26 04:37:45;;;;;;;9.63;4.20;;;18.90;77.50;;;;;;5097145;28;20032;-74
2022/07/26 04:40:15;;;;;;;9.30;3.70;;;18.90;77.80;;;;;;5114985;28;20024;-75
2022/07/26 04:42:42;;;;;;;12.32;4.13;;;18.90;78.00;;;;;;5114623;28;20024;-74
2022/07/26 04:45:09;;;;;;;7.40;3.83;;;18.90;78.10;;;;;;5114889;28;20028;-75
2022/07/26 04:47:35;;;;;;;12.52;4.43;;;18.90;78.10;;;;;;5114981;28;20028;-75
2022/07/26 04:50:01;;;;;;;7.20;3.38;;;18.90;78.30;;;;;;5114673;28;20036;-75
2022/07/26 04:52:27;;;;;;;10.57;4.18;;;18.90;78.50;;;;;;5114755;28;20016;-75
2022/07/26 04:54:52;;;;;;;9.85;4.40;;;18.90;78.60;;;;;;5114658;28;20051;-75
2022/07/26 04:57:18;;;;;;;10.82;4.20;;;19.00;78.50;;;;;;5114644;28;20024;-75
2022/07/26 04:59:44;;;;;;;10.40;4.43;;;19.00;78.60;;;;;;5114611;28;20051;-75
2022/07/26 05:02:09;;;;;;;6.47;3.45;;;19.00;78.60;;;;;;5114542;28;20109;-75
2022/07/26 05:04:35;;;;;;;13.45;4.47;;;19.00;78.60;;;;;;5114503;28;20058;-74
2022/07/26 05:07:03;;;;;;;12.90;4.18;;;19.00;78.60;;;;;;5114581;28;20032;-74
2022/07/26 05:09:29;;;;;;;6.38;3.53;;;19.00;78.50;;;;;;5114211;28;20048;-74
2022/07/26 05:11:55;;;;;;;11.13;4.53;;;19.10;78.20;;;;;;5114518;28;20542;-74
2022/07/26 05:14:20;;;;;;;12.00;4.22;;;19.20;78.20;;;;;;5114341;28;20028;-75
2022/07/26 05:16:46;;;;;;;10.15;4.20;;;19.20;78.10;;;;;;5114228;28;20032;-74
2022/07/26 05:19:13;;;;;;;13.35;4.20;;;19.20;77.90;;;;;;5114230;28;20020;-74
2022/07/26 05:21:38;;;;;;;13.50;4.28;;;19.20;78.10;;;;;;5113329;28;20025;-74
2022/07/26 05:24:04;;;;;;;11.13;4.53;;;19.30;78.00;;;;;;5096168;28;20032;-75
2022/07/26 05:26:30;;;;;;;9.18;4.13;;;19.20;78.20;;;;;;5114238;28;20031;-75
2022/07/26 05:28:56;;;;;;;10.10;4.65;;;19.30;78.10;;;;;;5114018;28;20050;-74
2022/07/26 05:31:22;;;;;;;11.73;4.72;;;19.30;78.30;;;;;;5096165;28;20035;-74
2022/07/26 05:33:47;;;;;;;9.75;4.20;;;19.30;78.10;;;;;;5096127;28;20028;-74
2022/07/26 05:36:13;;;;;;;12.82;5.22;;;19.30;78.20;;;;;;5113944;28;20029;-74
2022/07/26 05:38:39;;;;;;;10.13;4.03;;;19.20;78.10;;;;;;5113923;28;20024;-75
2022/07/26 05:41:05;;;;;;;10.60;4.25;;;19.20;78.30;;;;;;5113856;28;20038;-74
2022/07/26 05:43:31;;;;;;;10.27;5.13;;;19.30;78.40;;;;;;5113961;28;20035;-74
2022/07/26 05:45:56;;;;;;;10.75;4.82;;;19.30;78.60;;;;;;5113845;28;20084;-74
2022/07/26 05:48:23;;;;;;;8.20;4.85;;;19.30;78.40;;;;;;5113803;28;20084;-75
2022/07/26 05:50:49;;;;;;;9.27;4.97;;;19.30;78.80;;;;;;5113674;28;20040;-74
2022/07/26 05:53:15;;;;;;;12.38;5.82;;;19.40;78.60;;;;;;5113746;28;20020;-74
2022/07/26 05:55:40;;;;;;;16.02;4.75;;;19.30;78.50;;;;;;5113659;28;20073;-74
2022/07/26 05:58:06;;;;;;;16.17;4.78;;;19.40;78.50;;;;;;5113776;28;20020;-74
2022/07/26 06:00:32;;;;;;;9.65;4.35;;;19.40;79.10;;;;;;5113772;28;20028;-74
2022/07/26 06:02:57;;;;;;;11.13;4.95;;;19.50;78.40;;;;;;5113595;28;20039;-74
2022/07/26 06:05:23;;;;;;;7.05;4.10;;;19.50;78.20;;;;;;5113572;28;20028;-74
2022/07/26 06:07:49;;;;;;;8.35;4.10;;;19.60;78.20;;;;;;5113562;28;20051;-74
2022/07/26 06:10:15;;;;;;;11.40;4.13;;;19.60;77.90;;;;;;5113273;28;20052;-74
2022/07/26 06:12:40;;;;;;;9.25;4.47;;;19.70;77.90;;;;;;5113468;28;20035;-75
2022/07/26 06:15:06;;;;;;;10.45;3.90;;;19.70;77.20;;;;;;5113598;28;20025;-74
2022/07/26 06:17:32;;;;;;;12.48;5.03;;;19.80;76.80;;;;;;5113460;28;20021;-74
2022/07/26 06:19:58;;;;;;;6.43;3.90;;;19.80;76.90;;;;;;5095726;28;20438;-75
2022/07/26 06:22:24;;;;;;;8.38;3.65;;;19.90;76.90;;;;;;5113539;28;20028;-75
2022/07/26 06:24:49;;;;;;;7.43;2.95;;;19.90;76.60;;;;;;5113410;28;20032;-75
2022/07/26 06:27:15;;;;;;;8.02;3.05;;;20.00;76.30;;;;;;5113351;28;20043;-75
2022/07/26 06:29:41;;;;;;;9.68;3.00;;;19.90;75.50;;;;;;5113246;28;20058;-75
2022/07/26 06:32:06;;;;;;;7.50;2.72;;;19.90;75.60;;;;;;5114091;28;20028;-75
2022/07/26 06:34:32;;;;;;;5.78;2.90;;;19.90;75.40;;;;;;5117420;28;20020;-75
2022/07/26 06:36:58;;;;;;;9.35;3.20;;;20.00;75.40;;;;;;5117318;28;20031;-75
2022/07/26 06:39:24;;;;;;;6.53;3.10;;;20.00;75.20;;;;;;5117283;28;20028;-75
2022/07/26 06:41:49;;;;;;;9.02;3.53;;;20.10;75.10;;;;;;5117430;28;20036;-75
2022/07/26 06:44:15;;;;;;;8.65;3.17;;;20.10;75.20;;;;;;5117244;28;20028;-75
2022/07/26 06:46:41;;;;;;;7.22;3.40;;;20.10;74.70;;;;;;5117352;28;20029;-75
2022/07/26 06:49:06;;;;;;;7.53;3.25;;;20.10;74.20;;;;;;5117142;28;20029;-75
2022/07/26 06:51:32;;;;;;;6.05;2.80;;;20.10;74.20;;;;;;5117053;28;20054;-75
2022/07/26 06:53:57;;;;;;;7.63;3.03;;;20.20;74.00;;;;;;5117066;28;20102;-75
2022/07/26 06:56:23;;;;;;;6.53;3.00;;;20.20;74.20;;;;;;5117042;28;20020;-75
2022/07/26 06:58:49;;;;;;;7.05;2.95;;;20.30;74.00;;;;;;5116978;28;20035;-75
2022/07/26 07:01:14;;;;;;;9.10;3.20;;;20.30;73.70;;;;;;5099052;28;20028;-75
2022/07/26 07:03:40;;;;;;;7.38;3.28;;;20.40;73.60;;;;;;5116869;28;20074;-75
2022/07/26 07:06:06;;;;;;;5.57;3.42;;;20.40;72.70;;;;;;5116849;28;20032;-75
2022/07/26 07:08:31;;;;;;;7.72;3.65;;;20.40;72.80;;;;;;5098760;28;20031;-75
2022/07/26 07:10:57;;;;;;;6.40;3.25;;;20.50;72.50;;;;;;5116858;28;20039;-75
2022/07/26 07:13:23;;;;;;;8.98;4.45;;;20.50;71.80;;;;;;5116693;28;20051;-75
2022/07/26 07:15:49;;;;;;;6.70;3.70;;;20.60;71.50;;;;;;5116614;28;20032;-75
2022/07/26 07:18:14;;;;;;;6.95;4.40;;;20.70;71.10;;;;;;5098659;28;20032;-75
2022/07/26 07:20:40;;;;;;;9.77;4.95;;;20.70;70.80;;;;;;5116545;28;20048;-75
2022/07/26 07:23:06;;;;;;;9.60;5.68;;;20.70;71.00;;;;;;5116516;28;20073;-75
2022/07/26 07:25:32;;;;;;;7.28;5.80;;;20.80;71.00;;;;;;5116475;28;20039;-75
2022/07/26 07:27:58;;;;;;;7.95;5.00;;;20.80;71.60;;;;;;5116356;28;20043;-75
2022/07/26 07:30:24;;;;;;;8.77;5.10;;;20.80;70.50;;;;;;5116295;28;20020;-75
2022/07/26 07:32:50;;;;;;;9.30;4.50;;;20.80;70.10;;;;;;5116349;28;20024;-75
2022/07/26 07:35:16;;;;;;;11.80;5.15;;;20.80;70.30;;;;;;5116272;28;20031;-75
2022/07/26 07:37:42;;;;;;;10.90;4.28;;;20.90;70.20;;;;;;5116340;28;20028;-75
2022/07/26 07:40:08;;;;;;;6.57;4.13;;;20.90;69.40;;;;;;5116157;28;20032;-75
2022/07/26 07:42:34;;;;;;;5.18;3.88;;;20.90;69.20;;;;;;5116150;28;20407;-75
2022/07/26 07:45:01;;;;;;;8.48;5.13;;;20.90;68.50;;;;;;5115116;28;20035;-75
2022/07/26 07:47:26;;;;;;;8.55;4.85;;;20.90;69.00;;;;;;5116034;28;20028;-75
2022/07/26 07:49:52;;;;;;;11.95;5.28;;;20.90;69.00;;;;;;5115935;28;20071;-75
2022/07/26 07:52:17;;;;;;;6.97;5.18;;;20.90;69.40;;;;;;5115934;28;20028;-75
2022/07/26 07:54:43;;;;;;;8.77;5.65;;;21.00;69.20;;;;;;5115921;28;20036;-75
2022/07/26 07:57:10;;;;;;;9.40;5.38;;;20.90;68.70;;;;;;5115825;28;20060;-75
2022/07/26 07:59:35;;;;;;;8.07;5.30;;;20.90;68.80;;;;;;5115817;28;20037;-75
2022/07/26 08:02:01;;;;;;;7.68;5.20;;;20.80;68.80;;;;;;5115787;28;20028;-75
2022/07/26 08:04:26;;;;;;;9.27;5.15;;;20.80;68.80;;;;;;5097863;28;20028;-75
2022/07/26 08:06:52;;;;;;;7.05;4.97;;;20.90;68.40;;;;;;5115679;28;20032;-75
2022/07/26 08:09:18;;;;;;;5.30;4.45;;;20.90;68.40;;;;;;5115247;28;20068;-75
2022/07/26 08:11:44;;;;;;;8.27;4.70;;;20.90;68.10;;;;;;5115573;28;20032;-75
2022/07/26 08:14:10;;;;;;;5.75;3.75;;;20.80;67.70;;;;;;5097705;28;20029;-75
2022/07/26 08:16:35;;;;;;;3.83;3.20;;;20.80;67.70;;;;;;5115450;28;20062;-75
2022/07/26 08:19:01;;;;;;;4.22;3.10;;;20.70;68.40;;;;;;5115408;28;20452;-75
2022/07/26 08:21:27;;;;;;;2.72;2.08;;;20.60;69.90;;;;;;5115516;28;20044;-75
2022/07/26 08:23:52;;;;;;;2.97;1.88;;;20.60;70.70;;;;;;5115342;28;20115;-75
2022/07/26 08:26:18;;;;;;;4.10;1.50;;;20.60;71.50;;;;;;5115276;28;20044;-75
2022/07/26 08:28:44;;;;;;;3.30;1.10;;;20.60;71.90;;;;;;5115157;28;20020;-75
2022/07/26 08:31:09;;;;;;;2.60;1.00;;;20.60;72.30;;;;;;5115096;28;20039;-75
2022/07/26 08:33:35;;;;;;;2.53;1.10;;;20.60;72.10;;;;;;5115151;28;20043;-75
2022/07/26 08:36:01;;;;;;;2.00;0.73;;;20.60;72.40;;;;;;5115123;28;20032;-75
2022/07/26 08:38:26;;;;;;;1.80;0.75;;;20.60;72.50;;;;;;5115079;28;20024;-75
2022/07/26 08:40:53;;;;;;;0.90;0.60;;;20.60;72.70;;;;;;5114991;28;20043;-75
2022/07/26 08:43:18;;;;;;;1.75;0.55;;;20.60;72.90;;;;;;5114931;28;20100;-75
2022/07/26 08:45:46;;;;;;;1.30;0.47;;;20.70;72.60;;;;;;5114930;28;20024;-75
2022/07/26 08:48:12;;;;;;;1.20;0.63;;;20.70;72.30;;;;;;5097224;28;20028;-75
2022/07/26 08:50:39;;;;;;;2.20;0.70;;;20.70;72.50;;;;;;5114892;28;20020;-75
2022/07/26 08:53:08;;;;;;;2.40;0.80;;;20.80;72.60;;;;;;5114885;28;20035;-75
2022/07/26 08:55:34;;;;;;;1.67;1.00;;;20.90;72.00;;;;;;5114605;28;20044;-75
2022/07/26 08:58:03;;;;;;;2.22;0.70;;;20.90;71.30;;;;;;5114834;28;20051;-75
2022/07/26 09:00:30;;;;;;;2.90;0.77;;;20.90;71.40;;;;;;5114598;28;20057;-75
2022/07/26 09:02:58;;;;;;;1.45;0.85;;;21.10;72.00;;;;;;5114611;28;20034;-75
2022/07/26 09:05:28;;;;;;;1.60;0.57;;;21.20;71.40;;;;;;5114544;28;20028;-75
2022/07/26 09:07:55;;;;;;;1.38;0.75;;;21.40;71.00;;;;;;5114507;28;20024;-75
2022/07/26 09:10:21;;;;;;;1.52;0.70;;;21.40;70.20;;;;;;5114243;28;20044;-75
2022/07/26 09:12:55;;;;;;;1.65;0.80;;;21.50;69.70;;;;;;5114393;28;20020;-75
2022/07/26 09:15:23;;;;;;;2.20;0.50;;;21.50;69.00;;;;;;5114403;28;20052;-75
2022/07/26 09:17:51;;;;;;;0.95;0.60;;;21.50;68.70;;;;;;5114294;28;20050;-75
2022/07/26 09:20:26;;;;;;;2.85;0.60;;;21.50;68.70;;;;;;5114248;28;20047;-75
2022/07/26 09:23:07;;;;;;;3.28;0.88;;;21.60;68.40;;;;;;5114224;28;20032;-75
2022/07/26 09:25:41;;;;;;;1.67;0.60;;;21.60;68.00;;;;;;5114163;28;20056;-75
2022/07/26 09:28:30;;;;;;;1.98;0.77;;;21.70;68.40;;;;;;5114214;28;20091;-75
2022/07/26 09:31:01;;;;;;;2.67;0.70;;;21.80;68.50;;;;;;5114038;28;20023;-75
2022/07/26 09:33:44;;;;;;;2.72;0.98;;;21.90;68.40;;;;;;5114105;28;20027;-75
2022/07/26 09:36:10;;;;;;;3.10;0.90;;;22.00;68.00;;;;;;5114204;28;20023;-75
2022/07/26 09:38:46;;;;;;;3.17;0.90;;;22.00;67.90;;;;;;5113952;28;20021;-75
2022/07/26 09:41:21;;;;;;;2.22;0.75;;;22.10;67.20;;;;;;5113956;28;20024;-75
2022/07/26 09:43:47;;;;;;;5.60;1.83;;;22.10;66.70;;;;;;5113854;28;20416;-75
2022/07/26 09:46:14;;;;;;;2.05;0.95;;;22.20;66.50;;;;;;5113882;28;20047;-75
2022/07/26 09:48:40;;;;;;;1.67;0.77;;;22.10;66.20;;;;;;5113827;28;20016;-75
2022/07/26 09:51:06;;;;;;;1.83;0.60;;;22.10;66.80;;;;;;5113696;28;20028;-75
2022/07/26 09:53:43;;;;;;;3.65;0.90;;;22.20;66.80;;;;;;5095983;28;20039;-75
2022/07/26 09:56:10;;;;;;;2.15;0.60;;;22.20;65.40;;;;;;5113729;28;20020;-75
2022/07/26 09:58:37;;;;;;;3.10;0.77;;;22.10;65.20;;;;;;5113653;28;20024;-75
2022/07/26 10:01:04;;;;;;;3.42;0.80;;;22.20;66.30;;;;;;5096019;28;20039;-75
2022/07/26 10:03:30;;;;;;;2.45;0.90;;;22.20;65.60;;;;;;5113623;28;20027;-75
2022/07/26 10:06:02;;;;;;;4.07;1.10;;;22.20;65.80;;;;;;5113602;28;20028;-75
2022/07/26 10:08:28;;;;;;;1.85;0.70;;;22.30;65.40;;;;;;5113084;28;20491;-75
2022/07/26 10:11:04;;;;;;;2.17;0.70;;;22.30;65.00;;;;;;5113381;28;20048;-75
2022/07/26 10:13:30;;;;;;;0.93;0.50;;;22.30;64.00;;;;;;5113590;28;20031;-75
2022/07/26 10:15:56;;;;;;;1.98;0.60;;;22.30;64.00;;;;;;5113491;28;20028;-75
2022/07/26 10:18:37;;;;;;;0.65;0.40;;;22.30;63.50;;;;;;5113627;28;20028;-75
2022/07/26 10:21:15;;;;;;;0.95;0.50;;;22.30;63.00;;;;;;5113455;28;20020;-75
2022/07/26 10:23:43;;;;;;;3.65;0.80;;;22.20;63.10;;;;;;5113422;28;20047;-75
2022/07/26 10:26:31;;;;;;;1.70;0.73;;;22.20;63.50;;;;;;5113362;28;20066;-75
2022/07/26 10:29:15;;;;;;;1.45;0.63;;;22.20;63.50;;;;;;5113249;28;20020;-75
2022/07/26 10:31:45;;;;;;;3.33;0.60;;;22.20;63.80;;;;;;5113312;28;20083;-75
2022/07/26 10:34:35;;;;;;;3.25;0.60;;;22.30;63.80;;;;;;5113484;28;20032;-75
2022/07/26 10:37:04;;;;;;;3.30;0.40;;;22.40;63.20;;;;;;5113357;28;20017;-75
2022/07/26 10:39:30;;;;;;;2.20;0.50;;;22.50;62.90;;;;;;5113576;28;20022;-75
2022/07/26 10:42:03;;;;;;;1.65;0.57;;;22.60;62.20;;;;;;5078724;28;20068;-75
2022/07/26 10:44:31;;;;;;;0.80;0.52;;;22.70;62.30;;;;;;5113328;28;20027;-76
2022/07/26 10:47:03;;;;;;;3.42;0.50;;;22.70;61.50;;;;;;5113199;28;20024;-75
2022/07/26 10:49:34;;;;;;;1.42;0.50;;;22.70;61.20;;;;;;5113162;28;20031;-75
2022/07/26 10:52:12;;;;;;;1.05;0.85;;;22.70;61.40;;;;;;5113198;28;20012;-75
2022/07/26 10:55:07;;;;;;;1.42;0.50;;;22.70;61.20;;;;;;5113188;28;20020;-75
2022/07/26 10:57:38;;;;;;;2.95;0.80;;;22.80;61.30;;;;;;5091809;28;20058;-75
2022/07/26 11:00:10;;;;;;;1.83;0.52;;;22.90;61.40;;;;;;5113275;28;20050;-75
2022/07/26 11:02:36;;;;;;;;;;;23.10;61.60;;;;;;5113431;28;20028;-75
2022/07/26 11:05:11;;;;;;;1.35;0.50;;;23.20;60.80;;;;;;5095237;28;20272;-75
2022/07/26 11:07:49;;;;;;;1.70;0.50;;;23.20;60.30;;;;;;5113191;28;20028;-75
2022/07/26 11:10:15;;;;;;;0.73;0.52;;;23.20;60.10;;;;;;5112790;28;20403;-75
2022/07/26 11:12:40;;;;;;;2.25;0.63;;;23.40;60.40;;;;;;5112985;28;20024;-75
2022/07/26 11:15:17;;;;;;;2.05;1.00;;;23.50;60.30;;;;;;5112948;28;20088;-75
2022/07/26 11:17:42;;;;;;;1.02;0.60;;;23.50;60.70;;;;;;5112861;28;20035;-75
2022/07/26 11:20:09;;;;;;;2.42;0.60;;;23.40;61.10;;;;;;5115247;28;20020;-75
2022/07/26 11:22:35;;;;;;;1.02;0.50;;;23.30;60.10;;;;;;5116474;28;20032;-74
2022/07/26 11:25:03;;;;;;;1.13;0.45;;;23.10;59.70;;;;;;5116513;28;20088;-75
2022/07/26 11:27:29;;;;;;;1.90;0.75;;;22.90;59.10;;;;;;5082281;28;20031;-75
2022/07/26 11:29:55;;;;;;;1.17;0.63;;;22.90;59.70;;;;;;5116281;28;20020;-75
2022/07/26 11:32:24;;;;;;;0.55;0.40;;;22.80;60.00;;;;;;5116370;28;20056;-75
2022/07/26 11:35:03;;;;;;;1.55;0.50;;;22.70;60.90;;;;;;5116299;28;20016;-75
2022/07/26 11:37:29;;;;;;;2.33;0.85;;;22.60;61.00;;;;;;5116248;28;20035;-75
2022/07/26 11:39:55;;;;;;;1.02;0.60;;;22.40;62.10;;;;;;5116205;28;20020;-75
2022/07/26 11:42:21;;;;;;;2.38;1.00;;;22.30;63.00;;;;;;5116157;28;20039;-75
2022/07/26 11:44:48;;;;;;;2.42;0.68;;;22.30;63.40;;;;;;5116124;28;20024;-75
2022/07/26 11:47:18;;;;;;;1.23;0.73;;;22.20;63.80;;;;;;5116123;28;20054;-75
2022/07/26 11:49:45;;;;;;;1.50;1.23;;;22.20;63.90;;;;;;5116044;28;20035;-75
2022/07/26 11:52:11;;;;;;;0.95;0.70;;;22.20;64.40;;;;;;5116000;28;20025;-75
2022/07/26 11:54:44;;;;;;;1.13;0.68;;;22.10;63.90;;;;;;5115970;28;20020;-75
2022/07/26 11:57:10;;;;;;;4.25;0.80;;;22.10;64.00;;;;;;5115737;28;20024;-75
2022/07/26 11:59:37;;;;;;;2.00;0.50;;;22.10;63.50;;;;;;5115834;28;20021;-75
2022/07/26 12:02:06;;;;;;;1.33;0.40;;;22.00;63.10;;;;;;5115799;28;20047;-75
2022/07/26 12:04:36;;;;;;;1.58;0.50;;;22.00;63.00;;;;;;5115752;28;20020;-75
2022/07/26 12:07:11;;;;;;;1.60;0.60;;;22.00;62.40;;;;;;5115790;28;20083;-75
2022/07/26 12:09:46;;;;;;;2.45;0.73;;;22.00;62.20;;;;;;5115438;28;20040;-74
2022/07/26 12:12:32;;;;;;;2.10;0.80;;;22.00;62.50;;;;;;5109473;28;20020;-75
2022/07/26 12:15:03;;;;;;;0.82;0.60;;;22.00;62.10;;;;;;5115581;28;20026;-75
2022/07/26 12:17:29;;;;;;;4.03;1.05;;;21.90;62.60;;;;;;5115523;28;20079;-75
2022/07/26 12:19:55;;;;;;;1.77;1.00;;;21.90;62.60;;;;;;5115443;28;20054;-75
2022/07/26 12:22:22;;;;;;;3.42;1.17;;;21.90;62.50;;;;;;5115404;28;20042;-75
2022/07/26 12:24:51;;;;;;;2.47;1.33;;;21.90;62.60;;;;;;5115348;28;20028;-75
2022/07/26 12:27:25;;;;;;;2.78;0.98;;;22.00;62.90;;;;;;5115314;28;20031;-75
2022/07/26 12:30:00;;;;;;;2.90;0.98;;;22.00;63.00;;;;;;5096770;28;20024;-75
2022/07/26 12:32:37;;;;;;;1.30;1.00;;;22.00;63.00;;;;;;5115192;28;20028;-75
2022/07/26 12:35:06;;;;;;;2.10;1.10;;;22.10;63.00;;;;;;5115140;28;20020;-75
2022/07/26 12:37:36;;;;;;;1.95;1.27;;;22.10;63.00;;;;;;5115115;28;20046;-75
2022/07/26 12:40:06;;;;;;;2.22;1.30;;;22.10;63.00;;;;;;5115295;28;20103;-75
2022/07/26 12:42:37;;;;;;;3.58;1.08;;;22.10;62.70;;;;;;5115022;28;20024;-75
2022/07/26 12:45:07;;;;;;;1.67;1.30;;;22.10;62.70;;;;;;5115001;28;20045;-75
2022/07/26 12:47:34;;;;;;;1.15;0.85;;;22.10;62.60;;;;;;5114991;28;20027;-75
2022/07/26 12:50:02;;;;;;;2.60;1.20;;;22.10;62.70;;;;;;5114781;28;20024;-75